sensor_id;sensor_type;location;lat;lon;timestamp;temperature;humidity
8988;DHT22;4529;51.360;12.474;2024-01-10T00:00:25;-6.10;99.90
8988;DHT22;4529;51.360;12.474;2024-01-10T00:05:28;-6.10;99.90
8988;DHT22;4529;51.360;12.474;2024-01-10T00:10:32;-6.20;99.90
8988;DHT22;4529;51.360;12.474;2024-01-10T00:15:36;-6.20;99.90
8988;DHT22;4529;51.360;12.474;2024-01-10T00:20:39;-6.20;99.90
8988;DHT22;4529;51.360;12.474;2024-01-10T00:25:43;-6.30;99.90
8988;DHT22;4529;51.360;12.474;2024-01-10T00:30:47;-6.30;99.90
8988;DHT22;4529;51.360;12.474;2024-01-10T00:35:51;-6.30;99.90
8988;DHT22;4529;51.360;12.474;2024-01-10T00:40:54;-6.30;99.90
8988;DHT22;4529;51.360;12.474;2024-01-10T00:45:58;-6.40;99.90
8988;DHT22;4529;51.360;12.474;2024-01-10T00:51:01;-6.40;99.90
8988;DHT22;4529;51.360;12.474;2024-01-10T00:56:05;-6.40;99.90
8988;DHT22;4529;51.360;12.474;2024-01-10T01:01:08;-6.50;99.90
8988;DHT22;4529;51.360;12.474;2024-01-10T01:06:12;-6.50;99.90
8988;DHT22;4529;51.360;12.474;2024-01-10T01:11:16;-6.60;99.90
8988;DHT22;4529;51.360;12.474;2024-01-10T01:16:19;-6.60;99.90
8988;DHT22;4529;51.360;12.474;2024-01-10T01:21:22;-6.70;99.90
8988;DHT22;4529;51.360;12.474;2024-01-10T01:26:26;-6.70;99.90
8988;DHT22;4529;51.360;12.474;2024-01-10T01:31:30;-6.70;99.90
8988;DHT22;4529;51.360;12.474;2024-01-10T01:36:33;-6.70;99.90
8988;DHT22;4529;51.360;12.474;2024-01-10T01:41:37;-6.70;99.90
8988;DHT22;4529;51.360;12.474;2024-01-10T01:46:40;-6.80;99.90
8988;DHT22;4529;51.360;12.474;2024-01-10T01:51:44;-6.70;99.90
8988;DHT22;4529;51.360;12.474;2024-01-10T01:56:47;-6.70;99.90
8988;DHT22;4529;51.360;12.474;2024-01-10T02:01:51;-6.80;99.90
8988;DHT22;4529;51.360;12.474;2024-01-10T02:06:54;-6.70;99.90
8988;DHT22;4529;51.360;12.474;2024-01-10T02:11:58;-6.60;99.90
8988;DHT22;4529;51.360;12.474;2024-01-10T02:17:04;-6.30;99.90
8988;DHT22;4529;51.360;12.474;2024-01-10T02:22:07;-6.30;99.90
8988;DHT22;4529;51.360;12.474;2024-01-10T02:27:12;-5.90;99.90
8988;DHT22;4529;51.360;12.474;2024-01-10T02:32:16;-5.80;99.90
8988;DHT22;4529;51.360;12.474;2024-01-10T02:37:21;-5.80;99.90
8988;DHT22;4529;51.360;12.474;2024-01-10T02:42:24;-5.70;99.90
8988;DHT22;4529;51.360;12.474;2024-01-10T02:47:28;-6.40;99.90
8988;DHT22;4529;51.360;12.474;2024-01-10T02:52:33;-6.50;99.90
8988;DHT22;4529;51.360;12.474;2024-01-10T02:57:37;-6.50;99.90
8988;DHT22;4529;51.360;12.474;2024-01-10T03:02:41;-6.60;99.90
8988;DHT22;4529;51.360;12.474;2024-01-10T03:07:46;-6.70;99.90
8988;DHT22;4529;51.360;12.474;2024-01-10T03:12:49;-6.80;99.90
8988;DHT22;4529;51.360;12.474;2024-01-10T03:17:53;-6.80;99.90
8988;DHT22;4529;51.360;12.474;2024-01-10T03:22:58;-6.60;99.90
8988;DHT22;4529;51.360;12.474;2024-01-10T03:28:02;-6.60;99.90
8988;DHT22;4529;51.360;12.474;2024-01-10T03:33:05;-6.40;99.90
8988;DHT22;4529;51.360;12.474;2024-01-10T03:38:10;-6.10;99.90
8988;DHT22;4529;51.360;12.474;2024-01-10T03:43:14;-6.00;99.90
8988;DHT22;4529;51.360;12.474;2024-01-10T03:48:18;-5.90;99.90
8988;DHT22;4529;51.360;12.474;2024-01-10T03:53:22;-6.10;99.90
8988;DHT22;4529;51.360;12.474;2024-01-10T03:58:31;-6.40;99.90
8988;DHT22;4529;51.360;12.474;2024-01-10T04:03:35;-6.70;99.90
8988;DHT22;4529;51.360;12.474;2024-01-10T04:08:39;-6.80;99.90
8988;DHT22;4529;51.360;12.474;2024-01-10T04:13:44;-6.80;99.90
8988;DHT22;4529;51.360;12.474;2024-01-10T04:18:47;-6.90;99.90
8988;DHT22;4529;51.360;12.474;2024-01-10T04:23:51;-6.80;99.90
8988;DHT22;4529;51.360;12.474;2024-01-10T04:28:54;-6.60;99.90
8988;DHT22;4529;51.360;12.474;2024-01-10T04:33:57;-6.30;99.90
8988;DHT22;4529;51.360;12.474;2024-01-10T04:39:01;-6.20;99.90
8988;DHT22;4529;51.360;12.474;2024-01-10T04:44:04;-6.00;99.90
8988;DHT22;4529;51.360;12.474;2024-01-10T04:49:08;-6.00;99.90
8988;DHT22;4529;51.360;12.474;2024-01-10T04:54:12;-6.20;99.90
8988;DHT22;4529;51.360;12.474;2024-01-10T04:59:16;-6.30;99.90
8988;DHT22;4529;51.360;12.474;2024-01-10T05:04:20;-6.30;99.90
8988;DHT22;4529;51.360;12.474;2024-01-10T05:09:23;-6.40;99.90
8988;DHT22;4529;51.360;12.474;2024-01-10T05:14:27;-6.70;99.90
8988;DHT22;4529;51.360;12.474;2024-01-10T05:19:31;-7.10;99.90
8988;DHT22;4529;51.360;12.474;2024-01-10T05:24:35;-7.10;99.90
8988;DHT22;4529;51.360;12.474;2024-01-10T05:29:38;-7.20;99.90
8988;DHT22;4529;51.360;12.474;2024-01-10T05:34:42;-7.40;99.90
8988;DHT22;4529;51.360;12.474;2024-01-10T05:39:45;-7.40;99.90
8988;DHT22;4529;51.360;12.474;2024-01-10T05:44:49;-7.60;99.90
8988;DHT22;4529;51.360;12.474;2024-01-10T05:49:52;-7.60;99.90
8988;DHT22;4529;51.360;12.474;2024-01-10T05:54:56;-7.60;99.90
8988;DHT22;4529;51.360;12.474;2024-01-10T06:00:00;-7.60;99.90
8988;DHT22;4529;51.360;12.474;2024-01-10T06:05:07;-7.70;99.90
8988;DHT22;4529;51.360;12.474;2024-01-10T06:10:08;-7.70;99.90
8988;DHT22;4529;51.360;12.474;2024-01-10T06:15:11;-7.60;99.90
8988;DHT22;4529;51.360;12.474;2024-01-10T06:20:15;-7.70;99.90
8988;DHT22;4529;51.360;12.474;2024-01-10T06:25:18;-7.60;99.90
8988;DHT22;4529;51.360;12.474;2024-01-10T06:30:21;-7.60;99.90
8988;DHT22;4529;51.360;12.474;2024-01-10T06:35:25;-7.60;99.90
8988;DHT22;4529;51.360;12.474;2024-01-10T06:40:29;-7.60;99.90
8988;DHT22;4529;51.360;12.474;2024-01-10T06:45:33;-7.50;99.90
8988;DHT22;4529;51.360;12.474;2024-01-10T06:50:37;-7.40;99.90
8988;DHT22;4529;51.360;12.474;2024-01-10T06:55:41;-6.80;99.90
8988;DHT22;4529;51.360;12.474;2024-01-10T07:00:45;-6.60;99.90
8988;DHT22;4529;51.360;12.474;2024-01-10T07:05:48;-6.70;99.90
8988;DHT22;4529;51.360;12.474;2024-01-10T07:10:52;-6.50;99.90
8988;DHT22;4529;51.360;12.474;2024-01-10T07:15:55;-6.40;99.90
8988;DHT22;4529;51.360;12.474;2024-01-10T07:20:59;-6.30;99.90
8988;DHT22;4529;51.360;12.474;2024-01-10T07:26:02;-6.20;99.90
8988;DHT22;4529;51.360;12.474;2024-01-10T07:31:05;-6.10;99.90
8988;DHT22;4529;51.360;12.474;2024-01-10T07:36:09;-6.10;99.90
8988;DHT22;4529;51.360;12.474;2024-01-10T07:41:13;-6.00;99.90
8988;DHT22;4529;51.360;12.474;2024-01-10T07:46:17;-5.90;99.90
8988;DHT22;4529;51.360;12.474;2024-01-10T07:51:21;-5.90;99.90
8988;DHT22;4529;51.360;12.474;2024-01-10T07:56:24;-5.80;99.90
8988;DHT22;4529;51.360;12.474;2024-01-10T08:01:28;-5.80;99.90
8988;DHT22;4529;51.360;12.474;2024-01-10T08:06:31;-5.80;99.90
8988;DHT22;4529;51.360;12.474;2024-01-10T08:11:35;-5.70;99.90
8988;DHT22;4529;51.360;12.474;2024-01-10T08:16:39;-5.60;99.90
8988;DHT22;4529;51.360;12.474;2024-01-10T08:21:42;-5.50;99.90
8988;DHT22;4529;51.360;12.474;2024-01-10T08:26:46;-5.50;99.90
8988;DHT22;4529;51.360;12.474;2024-01-10T08:31:49;-5.40;99.90
8988;DHT22;4529;51.360;12.474;2024-01-10T08:36:53;-5.30;99.90
8988;DHT22;4529;51.360;12.474;2024-01-10T08:41:57;-5.20;99.90
8988;DHT22;4529;51.360;12.474;2024-01-10T08:47:00;-5.00;99.90
8988;DHT22;4529;51.360;12.474;2024-01-10T08:52:05;-4.90;99.90
8988;DHT22;4529;51.360;12.474;2024-01-10T08:57:09;-4.90;99.90
8988;DHT22;4529;51.360;12.474;2024-01-10T09:02:13;-4.80;99.90
8988;DHT22;4529;51.360;12.474;2024-01-10T09:07:18;-4.80;99.90
8988;DHT22;4529;51.360;12.474;2024-01-10T09:12:21;-4.70;99.90
8988;DHT22;4529;51.360;12.474;2024-01-10T09:17:25;-4.60;99.90
8988;DHT22;4529;51.360;12.474;2024-01-10T09:22:28;-4.50;99.90
8988;DHT22;4529;51.360;12.474;2024-01-10T09:27:35;-4.40;99.90
8988;DHT22;4529;51.360;12.474;2024-01-10T09:32:39;-5.30;99.90
8988;DHT22;4529;51.360;12.474;2024-01-10T09:37:43;-5.50;99.90
8988;DHT22;4529;51.360;12.474;2024-01-10T09:42:50;-5.50;99.90
8988;DHT22;4529;51.360;12.474;2024-01-10T09:47:57;-5.50;99.90
8988;DHT22;4529;51.360;12.474;2024-01-10T09:53:07;-5.40;99.90
8988;DHT22;4529;51.360;12.474;2024-01-10T09:58:11;-5.40;99.90
8988;DHT22;4529;51.360;12.474;2024-01-10T10:03:15;-4.70;99.90
8988;DHT22;4529;51.360;12.474;2024-01-10T10:08:20;-4.40;99.90
8988;DHT22;4529;51.360;12.474;2024-01-10T10:13:27;-4.50;99.90
8988;DHT22;4529;51.360;12.474;2024-01-10T10:18:30;-4.20;99.90
8988;DHT22;4529;51.360;12.474;2024-01-10T10:23:33;-4.10;99.90
8988;DHT22;4529;51.360;12.474;2024-01-10T10:28:37;-3.60;99.90
8988;DHT22;4529;51.360;12.474;2024-01-10T10:33:41;-3.70;99.90
8988;DHT22;4529;51.360;12.474;2024-01-10T10:38:46;-3.50;99.90
8988;DHT22;4529;51.360;12.474;2024-01-10T10:43:48;-3.40;99.90
8988;DHT22;4529;51.360;12.474;2024-01-10T10:48:51;-3.30;99.90
8988;DHT22;4529;51.360;12.474;2024-01-10T10:53:55;-3.20;99.90
8988;DHT22;4529;51.360;12.474;2024-01-10T10:59:00;-3.00;99.90
8988;DHT22;4529;51.360;12.474;2024-01-10T11:04:03;-3.00;99.90
8988;DHT22;4529;51.360;12.474;2024-01-10T11:09:07;-2.90;99.90
8988;DHT22;4529;51.360;12.474;2024-01-10T11:14:39;-2.70;99.90
8988;DHT22;4529;51.360;12.474;2024-01-10T11:24:43;-2.50;99.90
8988;DHT22;4529;51.360;12.474;2024-01-10T11:29:47;-2.40;99.90
8988;DHT22;4529;51.360;12.474;2024-01-10T11:35:05;-2.40;99.90
8988;DHT22;4529;51.360;12.474;2024-01-10T11:40:09;-2.20;99.90
8988;DHT22;4529;51.360;12.474;2024-01-10T11:50:34;-2.10;99.90
8988;DHT22;4529;51.360;12.474;2024-01-10T11:55:50;-2.00;99.90
8988;DHT22;4529;51.360;12.474;2024-01-10T12:00:50;-2.00;99.90
8988;DHT22;4529;51.360;12.474;2024-01-10T12:05:54;-1.90;99.90
8988;DHT22;4529;51.360;12.474;2024-01-10T12:10:58;-1.70;99.90
8988;DHT22;4529;51.360;12.474;2024-01-10T12:16:02;-1.70;99.90
8988;DHT22;4529;51.360;12.474;2024-01-10T12:21:06;-1.70;99.90
8988;DHT22;4529;51.360;12.474;2024-01-10T12:26:09;-1.70;99.90
8988;DHT22;4529;51.360;12.474;2024-01-10T12:31:12;-1.60;99.90
8988;DHT22;4529;51.360;12.474;2024-01-10T12:36:17;-1.40;99.90
8988;DHT22;4529;51.360;12.474;2024-01-10T12:41:20;-1.50;99.90
8988;DHT22;4529;51.360;12.474;2024-01-10T12:46:25;-1.30;99.90
8988;DHT22;4529;51.360;12.474;2024-01-10T12:51:29;-1.30;99.90
8988;DHT22;4529;51.360;12.474;2024-01-10T12:56:32;-1.20;99.90
8988;DHT22;4529;51.360;12.474;2024-01-10T13:01:36;-1.20;99.90
8988;DHT22;4529;51.360;12.474;2024-01-10T13:06:39;-1.10;99.90
8988;DHT22;4529;51.360;12.474;2024-01-10T13:11:43;-1.00;99.90
8988;DHT22;4529;51.360;12.474;2024-01-10T13:16:47;-0.90;99.90
8988;DHT22;4529;51.360;12.474;2024-01-10T13:21:52;-0.90;99.90
8988;DHT22;4529;51.360;12.474;2024-01-10T13:26:56;-0.80;99.90
8988;DHT22;4529;51.360;12.474;2024-01-10T13:32:01;-0.80;99.90
8988;DHT22;4529;51.360;12.474;2024-01-10T13:37:05;-0.80;99.90
8988;DHT22;4529;51.360;12.474;2024-01-10T13:42:08;-0.80;99.90
8988;DHT22;4529;51.360;12.474;2024-01-10T13:47:12;-0.70;99.90
8988;DHT22;4529;51.360;12.474;2024-01-10T13:52:15;-0.70;99.90
8988;DHT22;4529;51.360;12.474;2024-01-10T13:57:19;-0.70;99.90
8988;DHT22;4529;51.360;12.474;2024-01-10T14:02:25;-0.80;99.90
8988;DHT22;4529;51.360;12.474;2024-01-10T14:07:28;-0.70;99.90
8988;DHT22;4529;51.360;12.474;2024-01-10T14:12:32;-0.70;99.90
8988;DHT22;4529;51.360;12.474;2024-01-10T14:17:35;-0.70;99.90
8988;DHT22;4529;51.360;12.474;2024-01-10T14:22:39;-0.60;99.90
8988;DHT22;4529;51.360;12.474;2024-01-10T14:27:44;-0.60;99.90
8988;DHT22;4529;51.360;12.474;2024-01-10T14:32:48;-0.60;99.90
8988;DHT22;4529;51.360;12.474;2024-01-10T14:37:52;-0.60;99.90
8988;DHT22;4529;51.360;12.474;2024-01-10T14:42:56;-0.60;99.90
8988;DHT22;4529;51.360;12.474;2024-01-10T14:48:00;-0.60;99.90
8988;DHT22;4529;51.360;12.474;2024-01-10T14:53:04;-0.60;99.90
8988;DHT22;4529;51.360;12.474;2024-01-10T14:58:08;-0.70;99.90
8988;DHT22;4529;51.360;12.474;2024-01-10T15:03:11;-0.70;99.90
8988;DHT22;4529;51.360;12.474;2024-01-10T15:08:16;-0.70;99.90
8988;DHT22;4529;51.360;12.474;2024-01-10T15:13:20;-0.70;99.90
8988;DHT22;4529;51.360;12.474;2024-01-10T15:18:24;-0.70;99.90
8988;DHT22;4529;51.360;12.474;2024-01-10T15:23:27;-0.80;99.90
8988;DHT22;4529;51.360;12.474;2024-01-10T15:28:31;-0.80;99.90
8988;DHT22;4529;51.360;12.474;2024-01-10T15:33:35;-0.90;99.90
8988;DHT22;4529;51.360;12.474;2024-01-10T15:38:42;-1.00;99.90
8988;DHT22;4529;51.360;12.474;2024-01-10T15:43:45;-1.00;99.90
8988;DHT22;4529;51.360;12.474;2024-01-10T15:48:49;-1.10;99.90
8988;DHT22;4529;51.360;12.474;2024-01-10T15:53:53;-1.10;99.90
8988;DHT22;4529;51.360;12.474;2024-01-10T15:58:57;-1.10;99.90
8988;DHT22;4529;51.360;12.474;2024-01-10T16:04:00;-1.20;99.90
8988;DHT22;4529;51.360;12.474;2024-01-10T16:09:04;-1.20;99.90
8988;DHT22;4529;51.360;12.474;2024-01-10T16:14:10;-1.20;99.90
8988;DHT22;4529;51.360;12.474;2024-01-10T16:19:11;-1.30;99.90
8988;DHT22;4529;51.360;12.474;2024-01-10T16:24:14;-1.30;99.90
8988;DHT22;4529;51.360;12.474;2024-01-10T16:29:18;-1.40;99.90
8988;DHT22;4529;51.360;12.474;2024-01-10T16:34:21;-1.30;99.90
8988;DHT22;4529;51.360;12.474;2024-01-10T16:39:25;-1.40;99.90
8988;DHT22;4529;51.360;12.474;2024-01-10T16:44:30;-1.50;99.90
8988;DHT22;4529;51.360;12.474;2024-01-10T16:49:34;-1.60;99.90
8988;DHT22;4529;51.360;12.474;2024-01-10T16:54:37;-1.60;99.90
8988;DHT22;4529;51.360;12.474;2024-01-10T16:59:41;-1.60;99.90
8988;DHT22;4529;51.360;12.474;2024-01-10T17:04:44;-1.70;99.90
8988;DHT22;4529;51.360;12.474;2024-01-10T17:09:47;-1.80;99.90
8988;DHT22;4529;51.360;12.474;2024-01-10T17:14:51;-2.00;99.90
8988;DHT22;4529;51.360;12.474;2024-01-10T17:19:55;-2.20;99.90
8988;DHT22;4529;51.360;12.474;2024-01-10T17:24:59;-2.30;99.90
8988;DHT22;4529;51.360;12.474;2024-01-10T17:30:07;-2.50;99.90
8988;DHT22;4529;51.360;12.474;2024-01-10T17:35:10;-2.50;99.90
8988;DHT22;4529;51.360;12.474;2024-01-10T17:40:14;-2.60;99.90
8988;DHT22;4529;51.360;12.474;2024-01-10T17:45:18;-2.60;99.90
8988;DHT22;4529;51.360;12.474;2024-01-10T17:50:22;-2.60;99.90
8988;DHT22;4529;51.360;12.474;2024-01-10T17:55:25;-2.60;99.90
8988;DHT22;4529;51.360;12.474;2024-01-10T18:00:29;-2.70;99.90
8988;DHT22;4529;51.360;12.474;2024-01-10T18:05:33;-2.70;99.90
8988;DHT22;4529;51.360;12.474;2024-01-10T18:10:36;-2.80;99.90
8988;DHT22;4529;51.360;12.474;2024-01-10T18:15:44;-2.80;99.90
8988;DHT22;4529;51.360;12.474;2024-01-10T18:20:48;-2.90;99.90
8988;DHT22;4529;51.360;12.474;2024-01-10T18:25:52;-3.10;99.90
8988;DHT22;4529;51.360;12.474;2024-01-10T18:30:55;-3.10;99.90
8988;DHT22;4529;51.360;12.474;2024-01-10T18:35:59;-3.10;99.90
8988;DHT22;4529;51.360;12.474;2024-01-10T18:41:02;-3.20;99.90
8988;DHT22;4529;51.360;12.474;2024-01-10T18:46:06;-3.20;99.90
8988;DHT22;4529;51.360;12.474;2024-01-10T18:51:09;-3.30;99.90
8988;DHT22;4529;51.360;12.474;2024-01-10T18:56:13;-3.40;99.90
8988;DHT22;4529;51.360;12.474;2024-01-10T19:01:18;-3.40;99.90
8988;DHT22;4529;51.360;12.474;2024-01-10T19:06:22;-3.40;99.90
8988;DHT22;4529;51.360;12.474;2024-01-10T19:11:25;-3.50;99.90
8988;DHT22;4529;51.360;12.474;2024-01-10T19:16:29;-3.40;99.90
8988;DHT22;4529;51.360;12.474;2024-01-10T19:21:32;-3.40;99.90
8988;DHT22;4529;51.360;12.474;2024-01-10T19:26:37;-3.50;99.90
8988;DHT22;4529;51.360;12.474;2024-01-10T19:31:41;-3.70;99.90
8988;DHT22;4529;51.360;12.474;2024-01-10T19:36:50;-3.80;99.90
8988;DHT22;4529;51.360;12.474;2024-01-10T19:41:54;-3.80;99.90
8988;DHT22;4529;51.360;12.474;2024-01-10T19:46:57;-3.80;99.90
8988;DHT22;4529;51.360;12.474;2024-01-10T19:52:01;-4.40;99.90
8988;DHT22;4529;51.360;12.474;2024-01-10T19:57:08;-4.90;99.90
8988;DHT22;4529;51.360;12.474;2024-01-10T20:02:12;-5.20;99.90
8988;DHT22;4529;51.360;12.474;2024-01-10T20:07:15;-5.50;99.90
8988;DHT22;4529;51.360;12.474;2024-01-10T20:12:19;-5.70;99.90
8988;DHT22;4529;51.360;12.474;2024-01-10T20:17:23;-5.70;99.90
8988;DHT22;4529;51.360;12.474;2024-01-10T20:22:28;-5.80;99.90
8988;DHT22;4529;51.360;12.474;2024-01-10T20:27:32;-5.80;99.90
8988;DHT22;4529;51.360;12.474;2024-01-10T20:32:36;-5.90;99.90
8988;DHT22;4529;51.360;12.474;2024-01-10T20:37:39;-5.80;99.90
8988;DHT22;4529;51.360;12.474;2024-01-10T20:42:43;-5.90;99.90
8988;DHT22;4529;51.360;12.474;2024-01-10T20:47:47;-5.90;99.90
8988;DHT22;4529;51.360;12.474;2024-01-10T20:52:50;-5.90;99.90
8988;DHT22;4529;51.360;12.474;2024-01-10T20:57:54;-6.00;99.90
8988;DHT22;4529;51.360;12.474;2024-01-10T21:02:57;-6.10;99.90
8988;DHT22;4529;51.360;12.474;2024-01-10T21:08:01;-6.20;99.90
8988;DHT22;4529;51.360;12.474;2024-01-10T21:13:04;-6.20;99.90
8988;DHT22;4529;51.360;12.474;2024-01-10T21:18:08;-6.30;99.90
8988;DHT22;4529;51.360;12.474;2024-01-10T21:23:11;-6.30;99.90
8988;DHT22;4529;51.360;12.474;2024-01-10T21:28:15;-6.30;99.90
8988;DHT22;4529;51.360;12.474;2024-01-10T21:33:19;-6.40;99.90
8988;DHT22;4529;51.360;12.474;2024-01-10T21:38:22;-6.40;99.90
8988;DHT22;4529;51.360;12.474;2024-01-10T21:43:26;-6.40;99.90
8988;DHT22;4529;51.360;12.474;2024-01-10T21:48:29;-6.40;99.90
8988;DHT22;4529;51.360;12.474;2024-01-10T21:53:33;-6.40;99.90
8988;DHT22;4529;51.360;12.474;2024-01-10T21:58:37;-6.60;99.90
8988;DHT22;4529;51.360;12.474;2024-01-10T22:03:41;-6.50;99.90
8988;DHT22;4529;51.360;12.474;2024-01-10T22:08:45;-6.70;99.90
8988;DHT22;4529;51.360;12.474;2024-01-10T22:13:49;-6.60;99.90
8988;DHT22;4529;51.360;12.474;2024-01-10T22:18:53;-6.60;99.90
8988;DHT22;4529;51.360;12.474;2024-01-10T22:23:57;-6.60;99.90
8988;DHT22;4529;51.360;12.474;2024-01-10T22:29:00;-6.70;99.90
8988;DHT22;4529;51.360;12.474;2024-01-10T22:34:04;-6.60;99.90
8988;DHT22;4529;51.360;12.474;2024-01-10T22:39:08;-6.70;99.90
8988;DHT22;4529;51.360;12.474;2024-01-10T22:44:11;-6.80;99.90
8988;DHT22;4529;51.360;12.474;2024-01-10T22:49:14;-6.80;99.90
8988;DHT22;4529;51.360;12.474;2024-01-10T22:54:18;-6.80;99.90
8988;DHT22;4529;51.360;12.474;2024-01-10T22:59:21;-6.80;99.90
8988;DHT22;4529;51.360;12.474;2024-01-10T23:04:25;-6.80;99.90
8988;DHT22;4529;51.360;12.474;2024-01-10T23:09:28;-6.80;99.90
8988;DHT22;4529;51.360;12.474;2024-01-10T23:14:32;-6.90;99.90
8988;DHT22;4529;51.360;12.474;2024-01-10T23:19:36;-6.80;99.90
8988;DHT22;4529;51.360;12.474;2024-01-10T23:24:40;-6.80;99.90
8988;DHT22;4529;51.360;12.474;2024-01-10T23:29:43;-6.90;99.90
8988;DHT22;4529;51.360;12.474;2024-01-10T23:34:47;-6.90;99.90
8988;DHT22;4529;51.360;12.474;2024-01-10T23:39:50;-7.00;99.90
8988;DHT22;4529;51.360;12.474;2024-01-10T23:44:54;-7.00;99.90
8988;DHT22;4529;51.360;12.474;2024-01-10T23:49:57;-6.90;99.90
8988;DHT22;4529;51.360;12.474;2024-01-10T23:55:01;-7.00;99.90
